createdAt,value
2022-12-17T00:00:52.574Z,73.45
2022-12-17T00:03:19.411Z,74.15
2022-12-17T00:05:46.451Z,75.68
2022-12-17T00:08:13.029Z,74.63
2022-12-17T00:10:39.716Z,74.11
2022-12-17T00:13:06.644Z,74.44
2022-12-17T00:15:34.261Z,74.15
2022-12-17T00:18:05.622Z,73.43
2022-12-17T00:20:32.403Z,74.42
2022-12-17T00:23:04.173Z,74.15
2022-12-17T00:25:30.822Z,73.66
2022-12-17T00:27:57.609Z,73.64
2022-12-17T00:30:24.758Z,75.27
2022-12-17T00:32:51.970Z,75.95
2022-12-17T00:35:18.701Z,74.22
2022-12-17T00:37:48.342Z,74.41
2022-12-17T00:40:15.278Z,74.51
2022-12-17T00:42:41.939Z,74.37
2022-12-17T00:45:08.985Z,74.13
2022-12-17T00:47:36.413Z,75.92
2022-12-17T00:50:03.255Z,74.54
2022-12-17T00:52:29.935Z,74.31
2022-12-17T00:54:56.662Z,74.72
2022-12-17T00:57:23.323Z,74.96
2022-12-17T00:59:52.249Z,74.93
2022-12-17T01:02:19.319Z,74.90
2022-12-17T01:04:46.224Z,75.25
2022-12-17T01:07:12.816Z,74.82
2022-12-17T01:09:39.575Z,75.36
2022-12-17T01:12:07.662Z,74.13
2022-12-17T01:14:35.362Z,74.43
2022-12-17T01:17:02.290Z,74.85
2022-12-17T01:19:29.456Z,74.63
2022-12-17T01:21:56.284Z,74.01
2022-12-17T01:24:23.447Z,73.34
2022-12-17T01:26:50.082Z,73.93
2022-12-17T01:29:16.762Z,73.74
2022-12-17T01:31:43.466Z,73.47
2022-12-17T01:34:10.367Z,73.27
2022-12-17T01:36:36.998Z,73.16
2022-12-17T01:39:03.769Z,73.20
2022-12-17T01:41:30.585Z,72.98
2022-12-17T01:43:57.253Z,74.09
2022-12-17T01:46:27.043Z,73.98
2022-12-17T01:48:53.892Z,73.95
2022-12-17T01:51:20.690Z,73.70
2022-12-17T01:54:07.399Z,73.41
2022-12-17T01:56:37.058Z,73.63
2022-12-17T01:59:05.647Z,73.68
2022-12-17T02:01:32.560Z,73.46
2022-12-17T02:03:59.511Z,72.66
2022-12-17T02:06:30.205Z,74.01
2022-12-17T02:09:16.702Z,74.43
2022-12-17T02:11:49.156Z,75.72
2022-12-17T02:14:39.199Z,75.29
2022-12-17T02:17:10.000Z,74.53
2022-12-17T02:19:51.718Z,73.50
2022-12-17T02:23:00.101Z,74.30
2022-12-17T02:25:51.921Z,74.17
2022-12-17T02:28:20.277Z,74.40
2022-12-17T02:30:47.262Z,74.04
2022-12-17T02:33:14.637Z,74.45
2022-12-17T02:35:51.226Z,74.39
2022-12-17T02:38:26.969Z,74.64
2022-12-17T02:40:53.722Z,74.67
2022-12-17T02:43:25.670Z,74.90
2022-12-17T02:45:59.005Z,75.72
2022-12-17T02:48:26.005Z,74.51
2022-12-17T02:50:53.302Z,74.29
2022-12-17T02:53:20.288Z,74.40
2022-12-17T02:55:47.210Z,75.48
2022-12-17T02:58:14.344Z,76.19
2022-12-17T03:00:41.102Z,75.54
2022-12-17T03:03:08.605Z,75.39
2022-12-17T03:05:45.025Z,75.58
2022-12-17T03:08:13.005Z,75.04
2022-12-17T03:10:40.800Z,75.08
2022-12-17T03:13:07.811Z,75.03
2022-12-17T03:15:34.468Z,75.41
2022-12-17T03:18:01.111Z,76.10
2022-12-17T03:20:27.787Z,76.44
2022-12-17T03:23:05.209Z,75.77
2022-12-17T03:25:31.918Z,75.53
2022-12-17T03:28:04.651Z,74.42
2022-12-17T03:30:35.723Z,73.08
2022-12-17T03:33:02.805Z,73.56
2022-12-17T03:35:29.438Z,73.81
2022-12-17T03:37:56.589Z,74.89
2022-12-17T03:40:23.174Z,76.11
2022-12-17T03:42:49.842Z,75.35
2022-12-17T03:45:16.628Z,76.33
2022-12-17T03:47:43.411Z,77.34
2022-12-17T03:50:10.026Z,78.11
2022-12-17T03:52:36.768Z,77.95
2022-12-17T03:55:03.928Z,77.58
2022-12-17T03:57:30.628Z,77.02
2022-12-17T03:59:57.278Z,77.56
2022-12-17T04:02:24.040Z,77.26
2022-12-17T04:04:50.774Z,78.24
2022-12-17T04:07:17.435Z,77.93
2022-12-17T04:09:44.019Z,77.84
2022-12-17T04:12:10.811Z,78.21
2022-12-17T04:14:37.739Z,77.67
2022-12-17T04:17:04.369Z,77.43
2022-12-17T04:19:30.966Z,77.96
2022-12-17T04:21:57.751Z,78.35
2022-12-17T04:24:24.405Z,78.56
2022-12-17T04:26:51.109Z,78.72
2022-12-17T04:29:20.665Z,78.93
2022-12-17T04:31:47.442Z,79.26
2022-12-17T04:34:14.009Z,78.18
2022-12-17T04:36:40.912Z,77.85
2022-12-17T04:39:07.592Z,79.51
2022-12-17T04:41:34.229Z,81.14
2022-12-17T04:44:03.231Z,80.67
2022-12-17T04:46:33.605Z,80.65
2022-12-17T04:49:00.362Z,80.12
2022-12-17T04:51:27.562Z,80.05
2022-12-17T04:53:54.155Z,79.91
2022-12-17T04:56:21.568Z,79.78
2022-12-17T04:58:48.230Z,79.55
2022-12-17T05:01:15.038Z,80.18
2022-12-17T05:03:41.882Z,80.26
2022-12-17T05:06:08.879Z,80.05
2022-12-17T05:08:41.214Z,79.43
2022-12-17T05:11:08.378Z,79.46
2022-12-17T05:13:35.429Z,80.35
2022-12-17T05:16:02.396Z,79.98
2022-12-17T05:18:29.164Z,80.06
2022-12-17T05:20:55.973Z,80.64
2022-12-17T05:23:22.591Z,80.38
2022-12-17T05:25:49.389Z,80.38
2022-12-17T05:28:16.078Z,79.81
2022-12-17T05:30:42.984Z,79.54
2022-12-17T05:33:09.621Z,78.70
2022-12-17T05:35:36.613Z,79.22
2022-12-17T05:38:08.419Z,79.22
2022-12-17T05:40:35.242Z,78.17
2022-12-17T05:43:05.052Z,79.00
2022-12-17T05:45:31.717Z,79.13
2022-12-17T05:47:58.712Z,79.27
2022-12-17T05:50:28.149Z,78.92
2022-12-17T05:53:01.591Z,79.47
2022-12-17T05:55:28.350Z,79.11
2022-12-17T05:58:06.546Z,78.63
2022-12-17T06:00:33.274Z,78.51
2022-12-17T06:03:01.722Z,78.35
2022-12-17T06:05:28.548Z,77.45
2022-12-17T06:08:02.982Z,78.23
2022-12-17T06:10:29.683Z,78.11
2022-12-17T06:12:57.545Z,78.46
2022-12-17T06:15:24.260Z,79.11
2022-12-17T06:17:57.486Z,77.82
2022-12-17T06:20:24.216Z,79.05
2022-12-17T06:23:10.153Z,79.09
2022-12-17T06:25:36.888Z,79.24
2022-12-17T06:28:03.526Z,79.80
2022-12-17T06:30:31.593Z,79.39
2022-12-17T06:33:09.412Z,79.11
2022-12-17T06:35:36.189Z,78.93
2022-12-17T06:38:06.455Z,79.46
2022-12-17T06:40:33.316Z,79.65
2022-12-17T06:42:59.972Z,79.50
2022-12-17T06:45:26.647Z,79.06
2022-12-17T06:48:00.739Z,79.00
2022-12-17T06:50:27.465Z,79.62
2022-12-17T06:53:04.665Z,79.83
2022-12-17T06:55:34.225Z,79.93
2022-12-17T06:58:01.687Z,79.50
2022-12-17T07:00:28.405Z,78.94
2022-12-17T07:02:58.647Z,79.31
2022-12-17T07:05:25.491Z,79.42
2022-12-17T07:08:00.562Z,79.62
2022-12-17T07:10:27.376Z,79.73
2022-12-17T07:12:53.949Z,80.26
2022-12-17T07:15:20.709Z,80.33
2022-12-17T07:18:01.170Z,80.24
2022-12-17T07:20:28.354Z,79.93
2022-12-17T07:22:59.588Z,79.55
2022-12-17T07:25:26.446Z,80.28
2022-12-17T07:27:55.120Z,83.07
2022-12-17T07:30:21.901Z,82.75
2022-12-17T07:32:58.148Z,82.61
2022-12-17T07:35:24.817Z,82.37
2022-12-17T07:37:58.881Z,81.06
2022-12-17T07:40:25.496Z,81.33
2022-12-17T07:42:52.062Z,81.79
2022-12-17T07:45:19.221Z,81.09
2022-12-17T07:47:53.291Z,81.04
2022-12-17T07:50:19.935Z,80.96
2022-12-17T07:52:59.319Z,80.69
2022-12-17T07:55:26.109Z,79.41
2022-12-17T07:58:03.479Z,81.28
2022-12-17T08:00:30.163Z,81.57
2022-12-17T08:03:00.459Z,82.38
2022-12-17T08:05:27.502Z,82.38
2022-12-17T08:07:54.126Z,82.65
2022-12-17T08:10:20.883Z,82.01
2022-12-17T08:12:58.330Z,82.89
2022-12-17T08:15:25.079Z,82.53
2022-12-17T08:17:51.711Z,83.16
2022-12-17T08:20:18.718Z,83.99
2022-12-17T08:22:45.310Z,84.22
2022-12-17T08:25:12.089Z,84.10
2022-12-17T08:27:38.744Z,83.91
2022-12-17T08:30:06.561Z,84.88
2022-12-17T08:32:33.190Z,83.41
2022-12-17T08:34:59.973Z,83.29
2022-12-17T08:37:26.621Z,83.31
2022-12-17T08:39:53.452Z,83.19
2022-12-17T08:42:20.087Z,83.25
2022-12-17T08:44:46.798Z,83.60
2022-12-17T08:47:13.397Z,82.89
2022-12-17T08:49:40.439Z,82.14
2022-12-17T08:52:07.032Z,81.59
2022-12-17T08:54:33.786Z,82.24
2022-12-17T08:57:00.760Z,81.72
2022-12-17T08:59:27.580Z,81.74
2022-12-17T09:01:54.303Z,81.41
2022-12-17T09:04:21.110Z,81.21
2022-12-17T09:06:47.709Z,81.99
2022-12-17T09:09:14.507Z,81.19
2022-12-17T09:11:42.695Z,83.28
2022-12-17T09:14:09.329Z,82.17
2022-12-17T09:16:35.987Z,82.73
2022-12-17T09:19:02.786Z,82.80
2022-12-17T09:21:30.954Z,82.01
2022-12-17T09:23:57.655Z,82.45
2022-12-17T09:26:24.551Z,81.66
2022-12-17T09:28:51.321Z,82.13
2022-12-17T09:31:18.001Z,83.31
2022-12-17T09:33:45.189Z,83.58
2022-12-17T09:36:11.858Z,85.22
2022-12-17T09:38:38.491Z,85.30
2022-12-17T09:41:26.423Z,84.79
2022-12-17T09:44:12.750Z,84.58
2022-12-17T09:46:59.058Z,83.18
2022-12-17T09:49:29.450Z,83.59
2022-12-17T09:51:56.244Z,83.37
2022-12-17T09:54:33.142Z,82.69
2022-12-17T09:56:59.980Z,82.47
2022-12-17T09:59:29.179Z,81.62
2022-12-17T10:01:56.140Z,82.81
2022-12-17T10:04:39.677Z,83.33
2022-12-17T10:07:17.231Z,83.25
2022-12-17T10:09:46.523Z,82.86
2022-12-17T10:12:16.599Z,81.86
2022-12-17T10:14:43.350Z,81.44
2022-12-17T10:17:29.959Z,81.15
2022-12-17T10:19:56.711Z,80.98
2022-12-17T10:22:23.749Z,82.30
2022-12-17T10:24:50.456Z,82.83
2022-12-17T10:27:20.020Z,82.82
2022-12-17T10:29:48.401Z,84.42
2022-12-17T10:32:15.140Z,84.87
2022-12-17T10:34:46.247Z,84.75
2022-12-17T10:37:19.967Z,84.22
2022-12-17T10:40:01.517Z,83.37
2022-12-17T10:42:38.958Z,83.46
2022-12-17T10:45:31.284Z,83.44
2022-12-17T10:47:57.939Z,83.12
2022-12-17T10:50:24.562Z,82.86
2022-12-17T10:52:51.733Z,83.17
2022-12-17T10:55:28.182Z,82.56
2022-12-17T10:57:55.007Z,81.57
2022-12-17T11:00:23.005Z,81.25
2022-12-17T11:02:49.816Z,82.32
2022-12-17T11:05:27.531Z,81.39
2022-12-17T11:07:54.571Z,81.79
2022-12-17T11:10:29.243Z,81.43
2022-12-17T11:13:01.956Z,81.15
2022-12-17T11:15:31.574Z,82.01
2022-12-17T11:17:58.834Z,83.17
2022-12-17T11:20:40.157Z,83.80
2022-12-17T11:23:17.165Z,83.72
2022-12-17T11:25:56.206Z,83.84
2022-12-17T11:28:28.827Z,83.31
2022-12-17T11:31:10.845Z,83.84
2022-12-17T11:33:47.443Z,82.60
2022-12-17T11:36:36.799Z,81.70
2022-12-17T11:39:18.306Z,81.29
2022-12-17T11:42:26.824Z,81.10
2022-12-17T11:45:10.774Z,80.32
2022-12-17T11:47:56.108Z,80.65
2022-12-17T11:50:32.819Z,79.83
2022-12-17T11:53:15.385Z,79.72
2022-12-17T11:56:14.072Z,80.17
2022-12-17T11:58:49.790Z,80.56
2022-12-17T12:01:45.664Z,80.22
2022-12-17T12:04:27.632Z,81.05
2022-12-17T12:07:12.507Z,80.35
2022-12-17T12:10:02.376Z,79.89
2022-12-17T12:13:16.370Z,78.65
2022-12-17T12:16:07.672Z,79.38
2022-12-17T12:19:09.437Z,82.25
2022-12-17T12:21:45.351Z,82.47
2022-12-17T12:24:36.878Z,81.65
2022-12-17T12:27:15.449Z,82.34
2022-12-17T12:30:20.308Z,83.88
2022-12-17T12:33:17.351Z,85.12
2022-12-17T12:35:44.779Z,86.19
2022-12-17T12:38:21.002Z,85.09
2022-12-17T12:40:59.573Z,83.85
2022-12-17T12:43:40.976Z,81.92
2022-12-17T12:46:38.555Z,82.38
2022-12-17T12:49:05.199Z,84.30
2022-12-17T12:51:36.005Z,84.58
2022-12-17T12:54:22.567Z,83.31
2022-12-17T12:56:49.274Z,83.89
2022-12-17T12:59:25.897Z,83.07
2022-12-17T13:01:52.905Z,82.98
2022-12-17T13:04:36.755Z,82.23
2022-12-17T13:07:03.426Z,81.47
2022-12-17T13:09:46.795Z,81.89
2022-12-17T13:12:24.663Z,82.88
2022-12-17T13:15:06.692Z,82.86
2022-12-17T13:17:41.314Z,81.56
2022-12-17T13:20:32.267Z,82.79
2022-12-17T13:23:11.128Z,83.89
2022-12-17T13:25:38.245Z,83.10
2022-12-17T13:28:05.876Z,82.09
2022-12-17T13:30:37.665Z,82.76
2022-12-17T13:33:22.765Z,83.18
2022-12-17T13:36:03.264Z,83.90
2022-12-17T13:38:46.367Z,83.16
2022-12-17T13:41:14.185Z,83.14
2022-12-17T13:43:54.518Z,83.12
2022-12-17T13:46:27.657Z,83.27
2022-12-17T13:49:02.300Z,82.22
2022-12-17T13:51:32.338Z,80.71
2022-12-17T13:54:04.591Z,80.88
2022-12-17T13:56:34.635Z,80.49
2022-12-17T13:59:08.155Z,82.38
2022-12-17T14:01:56.274Z,82.22
2022-12-17T14:04:53.516Z,82.80
2022-12-17T14:07:23.963Z,82.66
2022-12-17T14:09:52.787Z,82.74
2022-12-17T14:12:21.372Z,82.89
2022-12-17T14:14:52.206Z,81.19
2022-12-17T14:17:27.982Z,80.12
2022-12-17T14:20:16.708Z,80.00
2022-12-17T14:22:51.266Z,80.51
2022-12-17T14:25:34.334Z,81.23
2022-12-17T14:28:20.810Z,80.00
2022-12-17T14:31:24.476Z,77.64
2022-12-17T14:33:37.123Z,76.81
2022-12-17T14:36:08.207Z,77.45
2022-12-17T14:38:38.763Z,76.92
2022-12-17T14:41:15.207Z,77.48
2022-12-17T14:43:41.869Z,77.99
2022-12-17T14:46:15.161Z,78.30
2022-12-17T14:48:41.969Z,80.30
2022-12-17T14:51:40.252Z,80.47
2022-12-17T14:54:06.950Z,81.75
2022-12-17T14:56:33.557Z,81.61
2022-12-17T14:59:00.238Z,80.49
2022-12-17T15:01:27.154Z,79.34
2022-12-17T15:03:53.917Z,78.30
2022-12-17T15:06:21.387Z,78.00
2022-12-17T15:08:50.424Z,77.19
2022-12-17T15:11:20.174Z,76.41
2022-12-17T15:13:52.829Z,76.41
2022-12-17T15:16:23.080Z,75.35
2022-12-17T15:18:50.271Z,74.62
2022-12-17T15:21:18.631Z,75.17
2022-12-17T15:23:46.784Z,74.16
2022-12-17T15:26:14.109Z,73.84
2022-12-17T15:28:42.026Z,73.79
2022-12-17T15:31:10.982Z,74.05
2022-12-17T15:33:37.916Z,73.22
2022-12-17T15:36:05.213Z,71.24
2022-12-17T15:38:31.883Z,72.01
2022-12-17T15:41:03.613Z,71.91
2022-12-17T15:43:30.371Z,72.52
2022-12-17T15:46:01.253Z,72.54
2022-12-17T15:48:27.930Z,71.75
2022-12-17T15:50:54.521Z,70.32
2022-12-17T15:53:21.222Z,70.67
2022-12-17T15:55:47.832Z,72.55
2022-12-17T15:58:14.558Z,71.13
2022-12-17T16:00:41.195Z,71.17
2022-12-17T16:03:07.961Z,71.87
2022-12-17T16:05:34.599Z,71.26
2022-12-17T16:08:01.365Z,71.93
2022-12-17T16:10:28.108Z,71.59
2022-12-17T16:12:54.769Z,71.66
2022-12-17T16:15:21.518Z,70.94
2022-12-17T16:17:48.169Z,68.88
2022-12-17T16:20:14.810Z,69.97
2022-12-17T16:22:41.460Z,71.13
2022-12-17T16:25:08.346Z,70.67
2022-12-17T16:27:35.093Z,71.09
2022-12-17T16:30:01.801Z,71.60
2022-12-17T16:32:32.976Z,70.57
2022-12-17T16:35:03.027Z,69.52
2022-12-17T16:37:30.756Z,69.66
2022-12-17T16:40:00.184Z,70.35
2022-12-17T16:42:28.134Z,70.72
2022-12-17T16:44:54.890Z,70.28
2022-12-17T16:47:21.544Z,70.08
2022-12-17T16:49:50.770Z,70.16
2022-12-17T16:52:17.504Z,68.63
2022-12-17T16:54:44.214Z,70.31
2022-12-17T16:57:15.299Z,71.49
2022-12-17T16:59:42.794Z,71.23
2022-12-17T17:02:14.296Z,71.56
2022-12-17T17:04:41.330Z,71.62
2022-12-17T17:07:07.957Z,71.13
2022-12-17T17:09:34.902Z,71.87
2022-12-17T17:12:01.578Z,72.38
2022-12-17T17:14:28.643Z,72.47
2022-12-17T17:16:55.617Z,72.02
2022-12-17T17:19:22.369Z,71.94
2022-12-17T17:21:51.868Z,70.83
2022-12-17T17:24:21.576Z,71.73
2022-12-17T17:26:50.353Z,72.83
2022-12-17T17:29:17.398Z,73.76
2022-12-17T17:34:30.900Z,74.37
2022-12-17T17:36:57.594Z,75.08
2022-12-17T17:39:24.355Z,75.52
2022-12-17T17:41:50.960Z,76.20
2022-12-17T17:44:17.664Z,76.34
2022-12-17T17:46:44.347Z,77.87
2022-12-17T17:49:11.231Z,77.51
2022-12-17T17:52:08.369Z,77.22
2022-12-17T17:54:27.671Z,77.93
2022-12-17T17:56:55.751Z,77.13
2022-12-17T17:59:26.303Z,77.07
2022-12-17T18:01:58.157Z,77.05
2022-12-17T18:04:24.864Z,76.60
2022-12-17T18:09:39.151Z,76.83
2022-12-17T18:12:06.282Z,77.30
2022-12-17T18:14:37.742Z,76.97
2022-12-17T18:17:09.265Z,77.31
2022-12-17T18:19:35.828Z,78.29
2022-12-17T18:22:02.441Z,77.71
2022-12-17T18:24:29.102Z,77.88
2022-12-17T18:26:55.867Z,78.53
2022-12-17T18:29:25.502Z,78.35
2022-12-17T18:31:52.732Z,77.40
2022-12-17T18:34:22.913Z,77.77
2022-12-17T18:36:50.164Z,77.88
2022-12-17T18:39:19.867Z,77.33
2022-12-17T18:41:48.379Z,77.42
2022-12-17T18:44:16.278Z,76.98
2022-12-17T18:46:43.150Z,76.37
2022-12-17T18:49:12.659Z,77.28
2022-12-17T18:51:42.004Z,77.65
2022-12-17T18:54:12.444Z,77.40
2022-12-17T18:57:01.023Z,77.08
2022-12-17T18:59:29.795Z,77.12
2022-12-17T19:01:57.603Z,76.33
2022-12-17T19:04:25.222Z,76.93
2022-12-17T19:06:54.351Z,77.34
2022-12-17T19:09:23.071Z,77.75
2022-12-17T19:11:51.555Z,78.34
2022-12-17T19:14:18.392Z,79.95
2022-12-17T19:16:45.448Z,80.07
2022-12-17T19:19:13.570Z,80.67
2022-12-17T19:21:41.055Z,80.63
2022-12-17T19:24:11.637Z,79.24
2022-12-17T19:26:38.399Z,79.29
2022-12-17T19:29:05.276Z,79.59
2022-12-17T19:31:32.817Z,79.79
2022-12-17T19:34:02.511Z,79.90
2022-12-17T19:36:30.831Z,79.98
2022-12-17T19:39:00.150Z,78.89
2022-12-17T19:41:27.806Z,79.44
2022-12-17T19:43:59.892Z,79.44
2022-12-17T19:46:27.367Z,79.83
2022-12-17T19:48:54.467Z,79.89
2022-12-17T19:51:26.971Z,79.84
2022-12-17T19:53:54.791Z,78.83
2022-12-17T19:56:27.354Z,79.04
2022-12-17T19:59:02.305Z,79.87
2022-12-17T20:01:34.111Z,78.81
2022-12-17T20:04:01.145Z,79.57
2022-12-17T20:06:30.663Z,79.28
2022-12-17T20:09:01.777Z,80.32
2022-12-17T20:11:28.528Z,80.25
2022-12-17T20:14:17.000Z,80.54
2022-12-17T20:16:47.094Z,79.77
2022-12-17T20:19:19.744Z,79.80
2022-12-17T20:21:47.177Z,79.25
2022-12-17T20:24:14.574Z,78.09
2022-12-17T20:26:41.507Z,78.48
2022-12-17T20:29:08.699Z,78.89
2022-12-17T20:31:36.237Z,78.97
2022-12-17T20:34:04.923Z,79.26
2022-12-17T20:36:32.137Z,79.29
2022-12-17T20:38:59.387Z,79.45
2022-12-17T20:41:28.561Z,79.31
2022-12-17T20:43:55.281Z,79.80
2022-12-17T20:46:24.599Z,79.34
2022-12-17T20:48:51.969Z,78.23
2022-12-17T20:51:22.494Z,79.41
2022-12-17T20:53:51.473Z,79.37
2022-12-17T20:56:39.262Z,80.78
2022-12-17T20:59:08.196Z,80.84
2022-12-17T21:01:36.673Z,80.37
2022-12-17T21:04:05.873Z,80.61
2022-12-17T21:06:38.079Z,80.73
2022-12-17T21:09:05.537Z,79.94
2022-12-17T21:11:34.255Z,80.06
2022-12-17T21:14:04.590Z,79.58
2022-12-17T21:16:35.396Z,79.36
2022-12-17T21:19:04.252Z,79.34
2022-12-17T21:21:34.061Z,78.97
2022-12-17T21:24:01.075Z,80.14
2022-12-17T21:26:42.469Z,80.36
2022-12-17T21:29:10.104Z,80.43
2022-12-17T21:31:45.917Z,80.52
2022-12-17T21:34:19.311Z,80.21
2022-12-17T21:36:46.089Z,80.57
2022-12-17T21:39:14.537Z,80.21
2022-12-17T21:41:44.682Z,80.05
2022-12-17T21:44:14.545Z,80.41
2022-12-17T21:46:42.746Z,80.34
2022-12-17T21:49:10.381Z,79.76
2022-12-17T21:51:37.330Z,80.92
2022-12-17T21:54:08.449Z,81.15
2022-12-17T21:56:36.395Z,81.79
2022-12-17T21:59:03.426Z,81.17
2022-12-17T22:01:33.380Z,81.11
2022-12-17T22:04:02.522Z,79.99
2022-12-17T22:06:34.589Z,80.01
2022-12-17T22:09:16.878Z,79.83
2022-12-17T22:11:57.348Z,79.16
2022-12-17T22:14:23.980Z,79.48
2022-12-17T22:16:50.712Z,80.14
2022-12-17T22:19:21.803Z,79.81
2022-12-17T22:21:50.994Z,79.29
2022-12-17T22:24:22.597Z,78.88
2022-12-17T22:26:51.467Z,78.71
2022-12-17T22:29:18.284Z,77.78
2022-12-17T22:31:44.920Z,78.17
2022-12-17T22:34:40.777Z,77.79
2022-12-17T22:41:06.800Z,77.24
2022-12-17T22:43:45.257Z,76.98
2022-12-17T22:44:40.584Z,76.19
2022-12-17T22:45:20.515Z,76.61
2022-12-17T22:47:47.767Z,76.43
2022-12-17T22:50:14.488Z,77.31
2022-12-17T22:52:41.590Z,77.05
2022-12-17T22:55:08.903Z,77.19
2022-12-17T22:57:38.815Z,76.74
2022-12-17T23:00:29.158Z,76.27
2022-12-17T23:02:56.083Z,75.85
2022-12-17T23:05:24.798Z,75.59
2022-12-17T23:07:51.910Z,76.56
2022-12-17T23:10:19.635Z,77.10
2022-12-17T23:12:46.964Z,76.94
2022-12-17T23:15:13.761Z,76.90
2022-12-17T23:17:40.785Z,77.88
2022-12-17T23:20:07.784Z,77.08
2022-12-17T23:22:34.616Z,76.59
2022-12-17T23:25:01.421Z,76.42
2022-12-17T23:27:28.148Z,76.72
2022-12-17T23:29:55.991Z,76.65
2022-12-17T23:32:22.762Z,76.96
2022-12-17T23:34:50.110Z,76.66
2022-12-17T23:37:16.852Z,77.99
2022-12-17T23:39:43.638Z,77.48
2022-12-17T23:42:10.333Z,77.35
2022-12-17T23:44:36.977Z,77.19
2022-12-17T23:47:03.750Z,77.70
2022-12-17T23:49:30.447Z,77.29
2022-12-17T23:51:57.188Z,76.96
2022-12-17T23:54:24.709Z,76.86
2022-12-17T23:56:51.492Z,77.26
2022-12-17T23:59:18.185Z,77.81
